Curimata, Brazil
Current Conditions -  °F | °C
As of 1:00 PM on Thursday 23 Oct 2014 (Local Time) from SBPL Reporting Station
Few Clouds Few Clouds  
Wind Chill: 91°   Ceiling: Unl
Heat Index: 91°   Visibility: 6mi
Dew Point: 59°   Wind: 10mph
Humidity: 34%   Direction: 150°SSE
Pressure: 29.94"   Gusts: NA
Location:  10.05°S, 44.29°W
Report Text: SBPL 231600Z 15009KT 9999 FEW040 33/15 Q1014
Loading
Personal Weather Stations






























Interactive Weather Map
Tropical Storm Tracking
New forecast layout! Learn more

10-Day Weather Forecast

Advertisements
Track Severe Weather on mobile